AirNav   Everest Fuels
 
 1027 users online  

CO69 Vail Health EMS Heliport
Vail, Colorado, USA


FAA INFORMATION EFFECTIVE 08 SEPTEMBER 2022

Location

FAA Identifier: CO69
Lat/Long: 39-38-37.5800N 106-22-53.3700W
39-38.626333N 106-22.889500W
39.6437722,-106.3814917
(estimated)
Elevation: 8384 ft. / 2555 m (estimated)
From city: 1 mile NW of VAIL, CO
Time zone: UTC -6 (UTC -7 during Standard Time)
Zip code: 81657

Heliport Operations

Heliport use: Private use. Permission required prior to landing
Activation date: 09/2020
Control tower: no
ARTCC: DENVER CENTER
FSS: DENVER FLIGHT SERVICE STATION
Attendance: 
Wind indicator: no
Segmented circle: no
Lights: SS-SR

Heliport Communications

CTAF: 122.9

Nearby radio navigation aids

VOR radial/distance  VOR name  Freq  Var
RLGr159/21.7KREMMLING VOR/DME113.8014E
DBLr051/26.7RED TABLE VOR/DME113.0012E
SXWr076/28.2SNOW VOR/DME109.2012E

Heliport Services

Airframe service: NONE
Powerplant service: NONE

Runway Information

Helipad H1

Dimensions: 46 x 46 ft. / 14 x 14 m
Surface: concrete, in good condition
Runway edge lights: non-standard
Latitude: 39-38.626333N
Longitude: 106-22.889500W
Elevation: 8384.0 ft.
Traffic pattern: leftleft

Helipad H2

Dimensions: 45 x 45 ft. / 14 x 14 m
Surface: asphalt/concrete, in good condition
Runway edge lights: non-standard
Latitude: 39-38.675333N
Longitude: 106-22.892167W
Elevation: 8201.0 ft.
Traffic pattern: leftleft

Heliport Ownership and Management from official FAA records

Ownership: Privately-owned
Owner: VAIL HEALTH
181 WEST MEADOW DRIVE
VAIL, CO 81657
Phone 720-309-8858
Manager: VAIL HEALTH
181 WEST MEADOW DRIVE
VAIL, CO 81657
Phone 720-309-8858

Heliport Operational Statistics

Aircraft based on the field: 1
Helicopters: 1
    

Instrument Procedures

There are no published instrument procedures at CO69.

Some nearby airports with instrument procedures:

20V - Mc Elroy Airfield (25 nm N)
KEGE - Eagle County Regional Airport (25 nm W)
KLXV - Lake County Airport (26 nm S)
KASE - Aspen-Pitkin County Airport/Sardy Field (34 nm SW)
KGNB - Granby-Grand County Airport (34 nm NE)
 
Loc | Ops | Rwys | IFR | FBO | Links
Com | Nav | Svcs | Stats | Notes

AirBoss

 
Aerial photo
No photo
 
Airport distance calculator
Flying to Vail Health EMS Heliport? Find the distance to fly.

From to CO69

Sunrise and sunset
Times for 24-Sep-2022
 Local
(UTC-6)
 Zulu
(UTC)
Morning civil twilight06:2912:29
Sunrise06:5612:56
Sunset18:5900:59
Evening civil twilight19:2601:26

Current date and time
Zulu (UTC)  24-Sep-2022 22:12:35
Local (UTC-6)  24-Sep-2022 16:12:35
 
METAR
KCCU 
15nm SE 
242155Z AUTO 29012G21KT 10SM CLR 12/M08 A3066 RMK AO2
K20V 
25nm N 
242154Z AUTO 31006G14KT 10SM CLR 23/M04 A3037 RMK AO2
KEGE 
25nm W 
242156Z VRB06KT 10SM CLR 24/M01 A3032 RMK AO2 SLP160 T02391006
KLXV 
25nm S 
242153Z AUTO 27013G22KT 10SM CLR 17/M08 A3049 RMK AO2 SLP192 T01671078
K0CO 
30nm E 
242155Z AUTO 34010G26KT 321V041 10SM CLR 07/M07 A3065 RMK AO2
TAF
KEGE 
25nm W 
242001Z 2420/2518 VRB03KT P6SM SKC FM242100 24010G15KT P6SM SKC FM250200 VRB03KT P6SM SKC
NOTAMs
Click for the latest NOTAMs
NOTAMs are issued by the DoD/FAA and will open in a separate window not controlled by AirNav.

 

 
 

Would you like to see your business listed on this page?

 If your business provides an interesting product or service to pilots, flight crews, aircraft, or users of the Vail Health EMS Heliport, you should consider listing it here.  To start the listing process, click on the button below
 
Add a business
 

Other Pages about Vail Health EMS Heliport

Update a link
 
Copyright © AirNav, LLC. All rights reserved. Privacy Policy  Contact